Time;durP1;ratioP1;P1;durP2;ratioP2;P2;SDS_P1;SDS_P2;PMS_P1;PMS_P2;Temp;Humidity;BMP_temperature;BMP_pressure;BME280_temperature;BME280_humidity;BME280_pressure;Samples;Min_cycle;Max_cycle;Signal;HPM_P1;HPM_P2
2021/07/08 00:01:30;;;;;;;;;;;;;;;22.28;64.13;97486.64;1827555;77;20100;-75
2021/07/08 00:03:56;;;;;;;;;;;;;;;22.23;64.25;97488.55;1829553;77;20088;-74
2021/07/08 00:06:23;;;;;;;;;;;;;;;22.17;64.13;97487.13;1803026;78;20099;-74
2021/07/08 00:08:49;;;;;;;;;;;;;;;22.10;64.30;97482.52;1837921;77;20101;-72
2021/07/08 00:11:16;;;;;;;;;;;;;;;22.04;64.81;97479.74;1838779;77;20092;-73
2021/07/08 00:13:45;;;;;;;;;;;;;;;21.95;65.08;97483.88;1838639;77;20385;-72
2021/07/08 00:16:12;;;;;;;;;;;;;;;21.89;65.06;97481.09;1833864;77;20440;-75
2021/07/08 00:18:39;;;;;;;;;;;;;;;21.81;65.12;97488.23;1825907;78;20115;-73
2021/07/08 00:21:06;;;;;;;;;;;;;;;21.73;65.91;97477.59;1820360;78;20119;-75
2021/07/08 00:23:32;;;;;;;;;;;;;;;21.65;66.93;97486.55;1822377;78;20101;-73
2021/07/08 00:25:59;;;;;;;;;;;;;;;21.57;66.23;97483.11;1845595;77;20088;-74
2021/07/08 00:28:26;;;;;;;;;;;;;;;21.49;66.61;97483.50;1843647;77;20123;-73
2021/07/08 00:30:55;;;;;;;;;;;;;;;21.42;67.18;97488.45;1843418;77;20185;-73
2021/07/08 00:33:22;;;;;;;;;;;;;;;21.33;67.29;97486.34;1843541;77;20124;-74
2021/07/08 00:35:49;;;;;;;;;;;;;;;21.25;67.58;97486.43;1844495;77;20373;-74
2021/07/08 00:38:18;;;;;;;;;;;;;;;21.17;67.14;97485.50;1828293;77;20092;-73
2021/07/08 00:40:44;;;;;;;;;;;;;;;21.10;67.57;97489.92;1823703;77;20100;-73
2021/07/08 00:43:11;;;;;;;;;;;;;;;21.04;67.62;97486.12;1842127;77;20096;-74
2021/07/08 00:45:38;;;;;;;;;;;;;;;20.98;67.59;97495.38;1838668;77;20131;-72
2021/07/08 00:48:05;;;;;;;;;;;;;;;20.92;67.88;97493.42;1833975;77;20377;-72
2021/07/08 00:50:42;;;;;;;;;;;;;;;20.86;66.58;97497.12;1818883;77;20091;-72
2021/07/08 00:53:06;;;;;;;;;;;;;;;20.83;67.61;97496.66;1834523;77;20092;-74
2021/07/08 00:55:33;;;;;;;;;;;;;;;20.79;66.80;97493.51;1842217;77;20397;-74
2021/07/08 00:57:59;;;;;;;;;;;;;;;20.76;67.09;97495.20;1835791;77;20417;-74
2021/07/08 01:00:29;;;;;;;;;;;;;;;20.73;67.11;97490.19;1818851;77;20096;-74
2021/07/08 01:02:56;;;;;;;;;;;;;;;20.69;67.15;97496.41;1791740;79;20099;-73
2021/07/08 01:05:33;;;;;;;;;;;;;;;20.67;67.52;97495.74;1818014;77;20202;-73
2021/07/08 01:08:00;;;;;;;;;;;;;;;20.65;67.58;97495.59;1826331;77;20095;-73
2021/07/08 01:10:28;;;;;;;;;;;;;;;20.62;67.44;97494.61;1823220;78;20409;-72
2021/07/08 01:12:55;;;;;;;;;;;;;;;20.60;67.72;97483.56;1819321;78;20104;-73
2021/07/08 01:15:22;;;;;;;;;;;;;;;20.62;68.11;97491.41;1817821;78;20452;-73
2021/07/08 01:17:50;;;;;;;;;;;;;;;20.62;68.13;97494.61;1813659;78;20126;-74
2021/07/08 01:20:19;;;;;;;;;;;;;;;20.61;68.72;97493.75;1817751;78;20127;-74
2021/07/08 01:22:57;;;;;;;;;;;;;;;20.63;69.43;97486.91;1821381;77;20131;-73
2021/07/08 01:25:18;;;;;;;;;;;;;;;20.65;69.46;97483.55;1827970;77;20094;-73
2021/07/08 01:27:46;;;;;;;;;;;;;;;20.66;69.43;97482.51;1840245;77;20088;-74
2021/07/08 01:30:13;;;;;;;;;;;;;;;20.68;69.78;97477.33;1836257;77;20096;-72
2021/07/08 01:32:40;;;;;;;;;;;;;;;20.70;71.12;97479.81;1828923;77;20088;-74
2021/07/08 01:35:08;;;;;;;;;;;;;;;20.71;70.52;97480.97;1818047;77;20103;-74
2021/07/08 01:37:35;;;;;;;;;;;;;;;20.70;69.17;97476.62;1823569;77;20092;-74
2021/07/08 01:40:05;;;;;;;;;;;;;;;20.73;69.48;97472.77;1801068;77;20204;-73
2021/07/08 01:42:32;;;;;;;;;;;;;;;20.73;69.96;97471.44;1823677;77;20397;-73
2021/07/08 01:45:00;;;;;;;;;;;;;;;20.75;69.45;97473.44;1839220;78;20104;-75
2021/07/08 01:47:26;;;;;;;;;;;;;;;20.78;69.24;97475.77;1843193;77;20103;-73
2021/07/08 01:49:52;;;;;;;;;;;;;;;20.80;69.22;97476.91;1831018;77;20112;-74
2021/07/08 01:52:19;;;;;;;;;;;;;;;20.78;69.44;97478.97;1822678;77;20091;-72
2021/07/08 01:54:45;;;;;;;;;;;;;;;20.75;68.56;97484.15;1827487;77;20100;-74
2021/07/08 01:57:12;;;;;;;;;;;;;;;20.73;69.48;97484.34;1816523;77;20108;-74
2021/07/08 01:59:38;;;;;;;;;;;;;;;20.70;68.96;97490.53;1819875;78;20415;-74
2021/07/08 02:02:04;;;;;;;;;;;;;;;20.66;69.39;97494.07;1827839;77;20084;-75
2021/07/08 02:04:30;;;;;;;;;;;;;;;20.66;69.81;97494.56;1821324;77;20119;-73
2021/07/08 02:06:56;;;;;;;;;;;;;;;20.64;70.12;97492.07;1833548;77;20167;-74
2021/07/08 02:09:22;;;;;;;;;;;;;;;20.62;69.58;97496.77;1816343;77;20356;-74
2021/07/08 02:11:50;;;;;;;;;;;;;;;20.63;69.05;97500.29;1842338;77;20381;-74
2021/07/08 02:14:17;;;;;;;;;;;;;;;20.59;69.75;97499.81;1848875;77;20372;-73
2021/07/08 02:16:45;;;;;;;;;;;;;;;20.53;69.89;97500.02;1837563;77;20095;-74
2021/07/08 02:19:11;;;;;;;;;;;;;;;20.52;69.56;97499.69;1828262;77;20135;-73
2021/07/08 02:21:37;;;;;;;;;;;;;;;20.55;69.60;97496.66;1839050;77;20206;-73
2021/07/08 02:24:04;;;;;;;;;;;;;;;20.58;69.39;97502.98;1823824;77;20104;-73
2021/07/08 02:26:30;;;;;;;;;;;;;;;20.56;69.11;97500.16;1844402;77;20111;-72
2021/07/08 02:28:56;;;;;;;;;;;;;;;20.56;69.80;97496.14;1824903;77;20096;-74
2021/07/08 02:31:23;;;;;;;;;;;;;;;20.54;69.84;97506.19;1827542;77;20111;-74
2021/07/08 02:33:50;;;;;;;;;;;;;;;20.52;70.08;97502.36;1842181;77;20120;-73
2021/07/08 02:36:17;;;;;;;;;;;;;;;20.50;69.67;97504.38;1827433;77;20211;-74
2021/07/08 02:38:43;;;;;;;;;;;;;;;20.48;68.65;97507.73;1812734;77;20106;-73
2021/07/08 02:41:09;;;;;;;;;;;;;;;20.47;70.08;97506.58;1824845;77;20100;-75
2021/07/08 02:43:35;;;;;;;;;;;;;;;20.44;69.76;97501.89;1828029;77;20096;-75
2021/07/08 02:46:02;;;;;;;;;;;;;;;20.44;69.14;97504.57;1835226;77;20128;-72
2021/07/08 02:48:28;;;;;;;;;;;;;;;20.42;68.53;97501.75;1837540;77;20080;-73
2021/07/08 02:50:55;;;;;;;;;;;;;;;20.38;69.43;97508.45;1827393;77;20100;-75
2021/07/08 02:53:24;;;;;;;;;;;;;;;20.37;69.95;97510.31;1829899;77;20089;-72
2021/07/08 02:55:50;;;;;;;;;;;;;;;20.36;69.61;97509.97;1821612;77;20127;-72
2021/07/08 02:58:17;;;;;;;;;;;;;;;20.37;70.38;97518.34;1825955;77;20092;-76
2021/07/08 03:00:44;;;;;;;;;;;;;;;20.38;70.49;97515.14;1840711;77;20431;-77
2021/07/08 03:03:15;;;;;;;;;;;;;;;20.37;70.36;97515.66;1831645;77;20111;-75
2021/07/08 03:05:38;;;;;;;;;;;;;;;20.39;70.70;97516.81;1804863;77;20396;-75
2021/07/08 03:08:06;;;;;;;;;;;;;;;20.45;70.22;97518.81;1786278;78;20100;-75
2021/07/08 03:10:33;;;;;;;;;;;;;;;20.49;70.40;97519.29;1822335;77;20179;-76
2021/07/08 03:12:59;;;;;;;;;;;;;;;20.52;70.45;97519.77;1830225;77;20100;-76
2021/07/08 03:15:26;;;;;;;;;;;;;;;20.54;69.78;97515.56;1818602;78;20128;-76
2021/07/08 03:17:54;;;;;;;;;;;;;;;20.55;69.77;97518.57;1819947;77;20401;-75
2021/07/08 03:20:23;;;;;;;;;;;;;;;20.52;69.51;97518.42;1820458;78;20140;-75
2021/07/08 03:22:50;;;;;;;;;;;;;;;20.53;69.47;97517.42;1777496;79;20133;-75
2021/07/08 03:25:17;;;;;;;;;;;;;;;20.54;68.94;97520.92;1803404;78;20144;-77
2021/07/08 03:27:44;;;;;;;;;;;;;;;20.56;69.56;97521.06;1816444;78;20129;-75
2021/07/08 03:30:13;;;;;;;;;;;;;;;20.60;69.75;97529.09;1847382;77;20497;-75
2021/07/08 03:32:40;;;;;;;;;;;;;;;20.64;69.57;97529.56;1840204;77;20234;-76
2021/07/08 03:35:08;;;;;;;;;;;;;;;20.68;69.55;97532.72;1840390;77;20167;-75
2021/07/08 03:37:34;;;;;;;;;;;;;;;20.67;69.03;97537.74;1826604;77;20120;-75
2021/07/08 03:40:01;;;;;;;;;;;;;;;20.68;69.96;97532.72;1823842;77;20115;-76
2021/07/08 03:42:27;;;;;;;;;;;;;;;20.72;69.57;97538.88;1831169;78;20088;-75
2021/07/08 03:44:54;;;;;;;;;;;;;;;20.75;69.42;97533.70;1828032;78;20104;-76
2021/07/08 03:47:20;;;;;;;;;;;;;;;20.79;66.45;97540.38;1820829;77;20148;-76
2021/07/08 03:49:46;;;;;;;;;;;;;;;20.80;66.67;97545.22;1818465;77;20440;-74
2021/07/08 03:52:13;;;;;;;;;;;;;;;20.79;68.85;97550.28;1820335;78;20155;-76
2021/07/08 03:54:39;;;;;;;;;;;;;;;20.86;69.43;97553.91;1820762;78;20139;-77
2021/07/08 03:57:05;;;;;;;;;;;;;;;20.94;66.69;97559.20;1826462;78;20152;-77
2021/07/08 03:59:33;;;;;;;;;;;;;;;21.11;68.64;97554.58;1829924;77;20147;-76
2021/07/08 04:01:59;;;;;;;;;;;;;;;21.46;68.40;97552.27;1827554;77;20096;-76
2021/07/08 04:04:25;;;;;;;;;;;;;;;21.89;67.85;97546.34;1827946;77;20104;-75
2021/07/08 04:06:51;;;;;;;;;;;;;;;22.40;67.02;97560.37;1830101;77;20138;-78
2021/07/08 04:09:17;;;;;;;;;;;;;;;22.88;65.89;97551.80;1838749;77;20104;-75
2021/07/08 04:11:44;;;;;;;;;;;;;;;23.41;64.97;97555.22;1816797;78;20088;-77
2021/07/08 04:14:12;;;;;;;;;;;;;;;23.93;63.76;97553.92;1837000;77;20093;-76
2021/07/08 04:16:38;;;;;;;;;;;;;;;24.32;62.32;97533.66;1846816;78;20088;-77
2021/07/08 04:19:04;;;;;;;;;;;;;;;24.95;60.55;97552.03;1830131;77;20361;-75
2021/07/08 04:21:31;;;;;;;;;;;;;;;25.45;59.45;97559.78;1830196;77;20117;-76
2021/07/08 04:23:57;;;;;;;;;;;;;;;25.96;57.06;97562.33;1847101;77;20101;-77
2021/07/08 04:26:23;;;;;;;;;;;;;;;26.41;55.43;97557.53;1845801;77;20163;-76
2021/07/08 04:28:51;;;;;;;;;;;;;;;26.79;55.73;97558.12;1834555;77;20100;-74
2021/07/08 04:31:17;;;;;;;;;;;;;;;27.15;53.66;97560.40;1839611;77;20157;-75
2021/07/08 04:33:46;;;;;;;;;;;;;;;27.62;51.80;97574.44;1844567;77;20091;-77
2021/07/08 04:36:12;;;;;;;;;;;;;;;28.02;51.90;97581.38;1839764;77;20182;-77
2021/07/08 04:38:41;;;;;;;;;;;;;;;28.37;49.88;97579.47;1842155;77;20092;-76
2021/07/08 04:41:08;;;;;;;;;;;;;;;28.65;51.02;97580.25;1830044;77;20099;-76
2021/07/08 04:43:35;;;;;;;;;;;;;;;29.00;50.53;97579.33;1826660;77;20084;-77
2021/07/08 04:46:01;;;;;;;;;;;;;;;29.27;49.12;97576.52;1825671;77;20108;-77
2021/07/08 04:48:28;;;;;;;;;;;;;;;29.59;49.99;97580.31;1842867;77;20503;-77
2021/07/08 04:50:54;;;;;;;;;;;;;;;29.86;48.07;97578.50;1824353;77;20389;-78
2021/07/08 04:53:20;;;;;;;;;;;;;;;30.21;47.21;97579.03;1839720;77;20160;-77
2021/07/08 04:55:47;;;;;;;;;;;;;;;30.57;49.08;97583.07;1846500;77;20148;-76
2021/07/08 04:58:13;;;;;;;;;;;;;;;30.90;43.48;97584.28;1847256;77;20120;-77
2021/07/08 05:00:41;;;;;;;;;;;;;;;31.29;44.10;97585.80;1843072;77;20401;-78
2021/07/08 05:03:08;;;;;;;;;;;;;;;31.32;48.48;97585.87;1846703;77;20392;-76
2021/07/08 05:05:35;;;;;;;;;;;;;;;31.30;43.78;97579.84;1845492;77;20377;-76
2021/07/08 05:08:01;;;;;;;;;;;;;;;31.61;44.02;97573.52;1848841;77;20424;-77
2021/07/08 05:10:27;;;;;;;;;;;;;;;31.87;43.21;97582.96;1836833;77;20389;-78
2021/07/08 05:12:53;;;;;;;;;;;;;;;31.88;44.47;97586.50;1832284;77;20378;-77
2021/07/08 05:15:20;;;;;;;;;;;;;;;31.75;42.74;97583.06;1845934;77;20885;-78
2021/07/08 05:17:48;;;;;;;;;;;;;;;31.85;42.35;97559.22;1832919;77;20377;-76
2021/07/08 05:20:16;;;;;;;;;;;;;;;32.27;42.91;97586.55;1831251;77;20603;-77
2021/07/08 05:22:45;;;;;;;;;;;;;;;32.41;46.10;97589.72;1841701;77;20182;-76
2021/07/08 05:25:14;;;;;;;;;;;;;;;32.68;40.65;97594.41;1844200;77;20084;-77
2021/07/08 05:27:41;;;;;;;;;;;;;;;33.03;42.79;97596.47;1830399;77;20120;-76
2021/07/08 05:30:08;;;;;;;;;;;;;;;33.04;41.01;97594.03;1833488;77;20147;-76
2021/07/08 05:32:35;;;;;;;;;;;;;;;33.25;38.28;97595.89;1845490;77;20138;-76
2021/07/08 05:35:05;;;;;;;;;;;;;;;33.04;41.78;97594.84;1829333;77;20136;-74
2021/07/08 05:37:31;;;;;;;;;;;;;;;32.57;39.34;97603.02;1842463;77;20147;-76
2021/07/08 05:39:57;;;;;;;;;;;;;;;32.26;41.45;97601.25;1838235;77;20124;-77
2021/07/08 05:42:23;;;;;;;;;;;;;;;32.31;40.20;97598.61;1842892;77;20096;-76
2021/07/08 05:44:49;;;;;;;;;;;;;;;32.66;43.10;97604.23;1845631;77;20170;-77
2021/07/08 05:47:16;;;;;;;;;;;;;;;32.46;41.26;97599.35;1846660;77;20123;-76
2021/07/08 05:49:44;;;;;;;;;;;;;;;32.13;40.26;97596.14;1847390;77;20108;-76
2021/07/08 05:52:10;;;;;;;;;;;;;;;31.83;41.64;97595.42;1818239;77;20148;-78
2021/07/08 05:54:36;;;;;;;;;;;;;;;31.75;41.30;97596.69;1838155;77;20104;-77
2021/07/08 05:57:05;;;;;;;;;;;;;;;31.50;40.88;97596.24;1850290;77;20408;-77
2021/07/08 05:59:31;;;;;;;;;;;;;;;31.28;41.69;97592.32;1851320;77;20135;-78
2021/07/08 06:01:57;;;;;;;;;;;;;;;31.65;42.38;97601.94;1838470;77;20120;-78
2021/07/08 06:04:23;;;;;;;;;;;;;;;31.68;41.42;97596.55;1831306;77;20369;-77
2021/07/08 06:06:49;;;;;;;;;;;;;;;31.49;41.36;97593.23;1836106;77;20101;-78
2021/07/08 06:09:15;;;;;;;;;;;;;;;31.74;42.15;97597.75;1833608;77;20171;-75
2021/07/08 06:11:42;;;;;;;;;;;;;;;31.76;40.98;97595.61;1846567;77;20084;-75
2021/07/08 06:14:08;;;;;;;;;;;;;;;31.70;41.40;97593.86;1829576;77;20225;-77
2021/07/08 06:16:34;;;;;;;;;;;;;;;31.42;42.06;97594.19;1836283;77;20124;-77
2021/07/08 06:19:00;;;;;;;;;;;;;;;31.19;43.04;97600.59;1839160;77;20093;-77
2021/07/08 06:21:26;;;;;;;;;;;;;;;31.06;43.25;97592.17;1832505;77;20100;-76
2021/07/08 06:23:52;;;;;;;;;;;;;;;30.99;43.53;97595.58;1843160;77;20119;-77
2021/07/08 06:26:18;;;;;;;;;;;;;;;31.22;43.62;97596.58;1843811;77;20100;-76
2021/07/08 06:28:44;;;;;;;;;;;;;;;30.87;44.04;97594.80;1827855;78;20133;-74
2021/07/08 06:31:10;;;;;;;;;;;;;;;30.94;44.28;97601.75;1813115;79;20140;-76
2021/07/08 06:33:37;;;;;;;;;;;;;;;30.81;44.74;97590.63;1837211;78;20092;-76
2021/07/08 06:36:04;;;;;;;;;;;;;;;31.26;44.09;97599.94;1843731;77;20092;-76
2021/07/08 06:38:31;;;;;;;;;;;;;;;31.38;43.82;97594.41;1840287;77;20232;-74
2021/07/08 06:40:58;;;;;;;;;;;;;;;31.64;43.92;97595.38;1819035;77;20100;-76
2021/07/08 06:43:24;;;;;;;;;;;;;;;31.52;43.47;97590.83;1813219;77;20114;-74
2021/07/08 06:45:51;;;;;;;;;;;;;;;31.38;43.68;97597.13;1830829;77;20151;-76
2021/07/08 06:48:17;;;;;;;;;;;;;;;31.53;43.94;97592.48;1815286;79;20389;-78
2021/07/08 06:50:44;;;;;;;;;;;;;;;31.74;43.52;97597.75;1816514;77;20369;-75
2021/07/08 06:53:10;;;;;;;;;;;;;;;31.54;43.46;97602.83;1833185;77;20379;-77
2021/07/08 06:55:38;;;;;;;;;;;;;;;31.62;43.13;97607.87;1827189;78;20155;-77
2021/07/08 06:58:04;;;;;;;;;;;;;;;31.77;43.37;97601.35;1829494;78;20410;-77
2021/07/08 07:00:37;;;;;;;;;;;;;;;31.95;42.57;97603.52;1835119;77;20365;-77
2021/07/08 07:03:03;;;;;;;;;;;;;;;31.64;42.72;97602.19;1830639;77;20113;-76
2021/07/08 07:05:29;;;;;;;;;;;;;;;31.41;43.00;97603.98;1834388;77;20163;-77
2021/07/08 07:07:56;;;;;;;;;;;;;;;31.65;43.08;97600.57;1841413;77;20127;-76
2021/07/08 07:10:24;;;;;;;;;;;;;;;31.77;40.70;97599.99;1833678;77;20120;-77
2021/07/08 07:12:52;;;;;;;;;;;;;;;31.93;40.40;97606.48;1820459;77;20155;-76
2021/07/08 07:15:21;;;;;;;;;;;;;;;32.28;40.56;97605.92;1843765;77;20147;-77
2021/07/08 07:17:47;;;;;;;;;;;;;;;32.49;39.78;97598.02;1828160;77;20096;-77
2021/07/08 07:20:15;;;;;;;;;;;;;;;32.99;40.28;97592.88;1838981;77;20487;-75
2021/07/08 07:22:48;;;;;;;;;;;;;;;33.57;37.81;97606.02;1833671;77;20100;-77
2021/07/08 07:25:14;;;;;;;;;;;;;;;34.00;39.43;97602.00;1832192;78;20095;-75
2021/07/08 07:27:41;;;;;;;;;;;;;;;34.06;37.31;97607.77;1815530;78;20120;-77
2021/07/08 07:30:08;;;;;;;;;;;;;;;33.85;35.77;97608.71;1833270;77;20115;-76
2021/07/08 07:32:35;;;;;;;;;;;;;;;33.75;36.36;97613.54;1827669;77;20107;-75
2021/07/08 07:35:02;;;;;;;;;;;;;;;33.70;37.73;97603.39;1839318;77;20119;-76
2021/07/08 07:37:28;;;;;;;;;;;;;;;33.70;36.80;97613.52;1817662;78;20531;-76
2021/07/08 07:39:54;;;;;;;;;;;;;;;33.42;36.61;97614.09;1835317;77;20112;-77
2021/07/08 07:42:21;;;;;;;;;;;;;;;33.42;36.97;97615.46;1839233;77;20184;-77
2021/07/08 07:44:47;;;;;;;;;;;;;;;33.09;36.83;97613.18;1844772;77;20093;-78
2021/07/08 07:47:15;;;;;;;;;;;;;;;33.01;37.01;97607.11;1836126;77;20099;-76
2021/07/08 07:49:41;;;;;;;;;;;;;;;33.12;36.43;97600.39;1826620;78;20119;-76
2021/07/08 07:52:08;;;;;;;;;;;;;;;33.10;37.35;97601.18;1837950;77;20100;-76
2021/07/08 07:54:35;;;;;;;;;;;;;;;32.92;37.04;97599.09;1822626;77;20178;-75
2021/07/08 07:57:05;;;;;;;;;;;;;;;33.03;36.89;97606.03;1835280;78;20120;-77
2021/07/08 07:59:32;;;;;;;;;;;;;;;32.74;36.30;97615.77;1838641;77;20119;-77
2021/07/08 08:01:58;;;;;;;;;;;;;;;32.80;37.07;97607.98;1842054;77;20115;-76
2021/07/08 08:04:29;;;;;;;;;;;;;;;32.89;37.54;97616.52;1840958;77;20080;-76
2021/07/08 08:09:37;;;;;;;;;;;;;;;32.96;37.58;97611.68;1845944;77;20455;-76
2021/07/08 08:12:03;;;;;;;;;;;;;;;32.89;37.96;97613.27;1845311;77;20395;-75
2021/07/08 08:14:29;;;;;;;;;;;;;;;32.83;37.32;97614.27;1840596;77;20088;-77
2021/07/08 08:16:56;;;;;;;;;;;;;;;32.67;37.47;97612.70;1830373;77;20120;-77
2021/07/08 08:19:22;;;;;;;;;;;;;;;32.59;37.61;97613.15;1844429;78;20201;-77
2021/07/08 08:21:48;;;;;;;;;;;;;;;32.50;38.31;97611.94;1845762;77;20100;-76
2021/07/08 08:24:14;;;;;;;;;;;;;;;32.59;38.37;97621.86;1838163;77;20400;-78
2021/07/08 08:26:40;;;;;;;;;;;;;;;32.26;37.49;97617.61;1839131;77;20186;-75
2021/07/08 08:29:06;;;;;;;;;;;;;;;32.33;38.18;97612.83;1835684;77;20096;-77
2021/07/08 08:31:32;;;;;;;;;;;;;;;32.45;37.82;97615.95;1839894;77;20092;-77
2021/07/08 08:33:58;;;;;;;;;;;;;;;32.60;37.76;97613.44;1836743;77;20100;-75
2021/07/08 08:36:24;;;;;;;;;;;;;;;32.53;37.90;97621.80;1838277;77;20156;-76
2021/07/08 08:38:51;;;;;;;;;;;;;;;32.73;37.69;97620.94;1837694;77;20124;-75
2021/07/08 08:41:18;;;;;;;;;;;;;;;32.68;36.58;97617.08;1838386;77;20164;-77
2021/07/08 08:43:44;;;;;;;;;;;;;;;32.68;37.17;97622.55;1841618;77;20076;-76
2021/07/08 08:46:12;;;;;;;;;;;;;;;32.60;37.88;97626.23;1834505;77;20142;-77
2021/07/08 08:48:38;;;;;;;;;;;;;;;32.51;38.27;97621.78;1838119;77;20104;-75
2021/07/08 08:51:06;;;;;;;;;;;;;;;32.54;37.74;97626.19;1844178;77;20401;-78
2021/07/08 08:53:32;;;;;;;;;;;;;;;32.42;38.25;97628.20;1842259;77;20390;-77
2021/07/08 08:55:58;;;;;;;;;;;;;;;32.01;37.96;97629.77;1840650;77;20405;-76
2021/07/08 08:58:25;;;;;;;;;;;;;;;31.71;39.27;97619.22;1843706;77;20393;-77
2021/07/08 09:00:56;;;;;;;;;;;;;;;31.77;39.48;97622.31;1844117;77;20203;-74
2021/07/08 09:03:27;;;;;;;;;;;;;;;31.64;39.66;97620.71;1842868;77;20133;-77
2021/07/08 09:06:06;;;;;;;;;;;;;;;31.72;39.03;97618.97;1846151;77;20166;-75
2021/07/08 09:08:36;;;;;;;;;;;;;;;31.74;38.11;97615.46;1836231;77;20239;-76
2021/07/08 09:11:05;;;;;;;;;;;;;;;31.76;38.28;97624.73;1837841;77;20151;-76
2021/07/08 09:13:41;;;;;;;;;;;;;;;31.89;38.63;97624.94;1840475;77;20080;-74
2021/07/08 09:16:12;;;;;;;;;;;;;;;31.80;39.20;97616.37;1829783;78;20128;-77
2021/07/08 09:18:39;;;;;;;;;;;;;;;31.77;39.04;97614.98;1821351;77;20130;-77
2021/07/08 09:21:20;;;;;;;;;;;;;;;31.83;39.22;97619.13;1805543;79;20126;-77
2021/07/08 09:24:07;;;;;;;;;;;;;;;31.93;39.04;97623.37;1840201;77;20197;-76
2021/07/08 09:26:37;;;;;;;;;;;;;;;31.95;39.24;97619.03;1825539;77;20104;-75
2021/07/08 09:29:13;;;;;;;;;;;;;;;31.98;39.17;97627.53;1830333;77;20191;-74
2021/07/08 09:31:39;;;;;;;;;;;;;;;31.93;39.46;97622.02;1827915;77;20107;-76
2021/07/08 09:34:19;;;;;;;;;;;;;;;31.87;39.89;97620.30;1807374;78;20086;-76
2021/07/08 09:36:48;;;;;;;;;;;;;;;31.91;39.72;97618.71;1819430;78;20136;-77
2021/07/08 09:39:15;;;;;;;;;;;;;;;31.69;40.06;97618.12;1838721;77;20136;-77
2021/07/08 09:41:49;;;;;;;;;;;;;;;31.44;40.05;97601.59;1834552;77;20496;-78
2021/07/08 09:44:26;;;;;;;;;;;;;;;31.38;40.01;97613.47;1843000;77;20144;-77
2021/07/08 09:46:54;;;;;;;;;;;;;;;31.23;40.45;97610.48;1840264;77;20124;-77
2021/07/08 09:49:20;;;;;;;;;;;;;;;31.06;40.84;97607.14;1822024;78;20104;-79
2021/07/08 09:51:46;;;;;;;;;;;;;;;31.08;40.64;97608.28;1839605;77;20096;-77
2021/07/08 09:54:17;;;;;;;;;;;;;;;31.10;40.84;97614.28;1832002;77;20121;-77
2021/07/08 09:56:49;;;;;;;;;;;;;;;31.10;41.12;97611.07;1814588;78;20148;-76
2021/07/08 09:59:22;;;;;;;;;;;;;;;31.06;41.19;97611.22;1845570;77;20177;-77
2021/07/08 10:01:57;;;;;;;;;;;;;;;31.08;41.16;97612.36;1804627;78;20137;-77
2021/07/08 10:04:23;;;;;;;;;;;;;;;31.01;41.04;97608.41;1821286;77;20157;-77
2021/07/08 10:06:50;;;;;;;;;;;;;;;30.99;41.28;97607.83;1817961;77;20136;-77
2021/07/08 10:09:18;;;;;;;;;;;;;;;31.00;41.43;97606.77;1831589;77;20222;-76
2021/07/08 10:11:47;;;;;;;;;;;;;;;30.93;41.57;97603.37;1845623;77;20093;-76
2021/07/08 10:14:17;;;;;;;;;;;;;;;30.82;41.62;97610.48;1834181;78;20105;-77
2021/07/08 10:16:49;;;;;;;;;;;;;;;30.80;41.93;97609.92;1825261;77;20104;-77
2021/07/08 10:19:18;;;;;;;;;;;;;;;30.67;41.89;97596.88;1822775;77;20143;-76
2021/07/08 10:21:47;;;;;;;;;;;;;;;30.46;41.96;97601.05;1797913;79;20228;-77
2021/07/08 10:24:14;;;;;;;;;;;;;;;30.56;42.40;97607.80;1800850;77;20429;-76
2021/07/08 10:26:41;;;;;;;;;;;;;;;30.47;42.62;97601.34;1843678;77;20392;-76
2021/07/08 10:29:09;;;;;;;;;;;;;;;30.53;42.64;97605.03;1806570;77;20433;-76
2021/07/08 10:31:35;;;;;;;;;;;;;;;30.62;42.29;97602.23;1846740;77;20088;-76
2021/07/08 10:34:16;;;;;;;;;;;;;;;30.63;42.32;97602.50;1839072;77;20104;-75
2021/07/08 10:36:46;;;;;;;;;;;;;;;30.72;42.42;97600.23;1773368;80;20175;-77
2021/07/08 10:39:15;;;;;;;;;;;;;;;30.74;42.24;97604.91;1787131;80;20522;-78
2021/07/08 10:41:52;;;;;;;;;;;;;;;30.82;42.33;97596.88;1757248;80;20473;-78
2021/07/08 10:44:38;;;;;;;;;;;;;;;30.81;42.44;97591.98;1789911;80;20154;-77
2021/07/08 10:47:05;;;;;;;;;;;;;;;30.95;42.33;97587.63;1767863;80;20225;-77
2021/07/08 10:49:41;;;;;;;;;;;;;;;31.06;42.17;97583.19;1787009;80;20154;-77
2021/07/08 10:52:11;;;;;;;;;;;;;;;31.08;41.16;97591.95;1788564;78;20113;-76
2021/07/08 10:54:41;;;;;;;;;;;;;;;31.10;41.45;97593.37;1776500;80;20117;-76
2021/07/08 10:57:09;;;;;;;;;;;;;;;31.20;41.63;97599.53;1765458;80;20202;-76
2021/07/08 10:59:45;;;;;;;;;;;;;;;31.23;41.24;97592.80;1768205;80;20319;-77
2021/07/08 11:02:10;;;;;;;;;;;;;;;31.20;40.97;97591.91;1773592;80;20106;-77
2021/07/08 11:04:46;;;;;;;;;;;;;;;31.20;41.40;97595.45;1769642;80;20085;-77
2021/07/08 11:07:22;;;;;;;;;;;;;;;31.15;41.21;97595.37;1775836;80;20427;-75
2021/07/08 11:10:04;;;;;;;;;;;;;;;31.23;41.13;97594.16;1768339;80;20088;-78
2021/07/08 11:12:36;;;;;;;;;;;;;;;31.31;40.88;97586.94;1770739;79;20125;-76
2021/07/08 11:15:07;;;;;;;;;;;;;;;31.35;40.24;97584.55;1819343;77;20159;-75
2021/07/08 11:17:43;;;;;;;;;;;;;;;31.35;40.25;97581.83;1834050;77;20372;-75
2021/07/08 11:20:29;;;;;;;;;;;;;;;31.36;39.79;97591.10;1827955;77;20088;-77
2021/07/08 11:22:56;;;;;;;;;;;;;;;31.30;38.82;97592.09;1832815;77;20380;-76
2021/07/08 11:25:40;;;;;;;;;;;;;;;31.34;39.68;97587.80;1830459;78;20427;-78
2021/07/08 11:28:28;;;;;;;;;;;;;;;31.41;40.27;97589.00;1821295;77;20104;-76
2021/07/08 11:31:03;;;;;;;;;;;;;;;31.55;39.96;97584.06;1827420;78;20302;-77
2021/07/08 11:33:31;;;;;;;;;;;;;;;31.66;39.40;97583.16;1841397;77;20381;-75
2021/07/08 11:36:02;;;;;;;;;;;;;;;31.71;39.07;97583.25;1837016;77;20387;-75
2021/07/08 11:38:31;;;;;;;;;;;;;;;31.72;39.21;97586.27;1811341;78;20511;-78
2021/07/08 11:40:58;;;;;;;;;;;;;;;31.77;39.29;97582.28;1827889;77;20263;-76
2021/07/08 11:43:32;;;;;;;;;;;;;;;31.80;38.65;97578.23;1837369;77;20104;-79
2021/07/08 11:46:12;;;;;;;;;;;;;;;31.82;38.95;97574.72;1843682;77;20080;-77
2021/07/08 11:48:44;;;;;;;;;;;;;;;31.76;38.18;97573.81;1827116;77;20148;-77
2021/07/08 11:51:19;;;;;;;;;;;;;;;31.90;37.89;97573.45;1842253;77;20127;-78
2021/07/08 11:53:47;;;;;;;;;;;;;;;31.81;38.19;97577.67;1840922;77;20104;-77
2021/07/08 11:56:18;;;;;;;;;;;;;;;31.72;38.80;97575.38;1830656;77;20377;-78
2021/07/08 11:58:44;;;;;;;;;;;;;;;31.69;38.98;97575.05;1845382;77;20144;-76
2021/07/08 12:01:15;;;;;;;;;;;;;;;31.71;38.51;97576.45;1844711;77;20097;-76
2021/07/08 12:03:48;;;;;;;;;;;;;;;31.82;38.23;97574.72;1844128;77;20092;-75
2021/07/08 12:06:17;;;;;;;;;;;;;;;31.85;38.42;97576.93;1844367;77;20431;-77
2021/07/08 12:08:47;;;;;;;;;;;;;;;31.88;38.65;97570.14;1848080;77;20550;-76
2021/07/08 12:11:17;;;;;;;;;;;;;;;31.99;38.44;97568.41;1833248;77;20104;-77
2021/07/08 12:14:00;;;;;;;;;;;;;;;32.08;38.63;97573.17;1830947;77;20096;-79
2021/07/08 12:16:34;;;;;;;;;;;;;;;32.04;38.29;97566.59;1824751;77;20172;-77
2021/07/08 12:19:10;;;;;;;;;;;;;;;31.91;38.67;97558.23;1822037;77;20152;-79
2021/07/08 12:21:38;;;;;;;;;;;;;;;31.91;38.89;97560.12;1830752;77;20227;-79
2021/07/08 12:24:11;;;;;;;;;;;;;;;31.99;39.07;97561.60;1841458;77;20381;-77
2021/07/08 12:26:41;;;;;;;;;;;;;;;31.97;38.47;97559.66;1839188;77;20139;-77
2021/07/08 12:29:20;;;;;;;;;;;;;;;31.93;39.11;97558.78;1840262;77;20259;-77
2021/07/08 12:31:49;;;;;;;;;;;;;;;31.96;38.65;97560.73;1832497;77;20132;-75
2021/07/08 12:34:17;;;;;;;;;;;;;;;31.82;38.32;97558.89;1832664;77;20092;-76
2021/07/08 12:36:44;;;;;;;;;;;;;;;31.78;38.74;97556.66;1829428;77;20368;-76
2021/07/08 12:39:14;;;;;;;;;;;;;;;31.75;38.52;97558.54;1827335;77;20108;-75
2021/07/08 12:41:45;;;;;;;;;;;;;;;31.71;39.09;97551.92;1819952;78;20179;-77
2021/07/08 12:44:13;;;;;;;;;;;;;;;31.73;38.97;97557.14;1804594;77;20088;-78
2021/07/08 12:46:39;;;;;;;;;;;;;;;31.74;39.16;97558.25;1834550;77;20124;-77
2021/07/08 12:49:06;;;;;;;;;;;;;;;31.74;39.17;97555.52;1817048;78;20097;-77
2021/07/08 12:51:39;;;;;;;;;;;;;;;31.83;38.72;97558.63;1834416;77;20179;-74
2021/07/08 12:54:05;;;;;;;;;;;;;;;31.66;38.25;97553.19;1823925;77;20092;-80
2021/07/08 12:56:31;;;;;;;;;;;;;;;31.61;37.87;97552.58;1831273;77;20112;-77